Time;durP1;ratioP1;P1;durP2;ratioP2;P2;SDS_P1;SDS_P2;PMS_P1;PMS_P2;Temp;Humidity;BMP_temperature;BMP_pressure;BME280_temperature;BME280_humidity;BME280_pressure;Samples;Min_cycle;Max_cycle;Signal;HPM_P1;HPM_P2
2022/10/01 00:00:01;;;;;;;10.10;9.20;;;15.40;43.40;;;;;;10463534;28;20716;-75
2022/10/01 00:05:09;;;;;;;10.43;9.53;;;15.30;43.40;;;;;;10459323;28;20259;-75
2022/10/01 00:10:14;;;;;;;9.30;8.50;;;15.30;43.80;;;;;;10466598;28;20279;-75
2022/10/01 00:15:19;;;;;;;8.97;8.10;;;15.30;43.70;;;;;;10462942;28;20236;-75
2022/10/01 00:20:24;;;;;;;10.23;9.23;;;15.30;43.70;;;;;;10463234;28;20236;-75
2022/10/01 00:25:27;;;;;;;10.07;9.27;;;15.30;43.90;;;;;;10465358;28;20661;-75
2022/10/01 00:30:30;;;;;;;10.63;9.63;;;15.30;43.70;;;;;;10467803;28;20270;-75
2022/10/01 00:35:36;;;;;;;9.27;8.57;;;15.30;43.60;;;;;;10456748;28;20259;-75
2022/10/01 00:40:39;;;;;;;8.80;8.10;;;15.30;43.80;;;;;;10460326;28;20233;-75
2022/10/01 00:45:42;;;;;;;9.37;8.47;;;15.30;43.50;;;;;;10465521;28;20236;-75
2022/10/01 00:50:48;;;;;;;10.77;9.70;;;15.30;43.50;;;;;;10468081;28;20302;-75
2022/10/01 00:55:55;;;;;;;8.87;8.17;;;15.20;43.40;;;;;;10461583;28;20236;-75
2022/10/01 01:00:58;;;;;;;9.77;8.87;;;15.20;43.40;;;;;;10461419;28;20239;-75
2022/10/01 01:06:06;;;;;;;10.30;9.50;;;15.20;43.30;;;;;;10460887;28;20740;-75
2022/10/01 01:11:16;;;;;;;9.83;9.03;;;15.10;43.20;;;;;;10458549;28;20294;-75
2022/10/01 01:16:28;;;;;;;10.07;9.17;;;15.10;43.30;;;;;;10462993;28;20236;-75
2022/10/01 01:21:35;;;;;;;9.47;8.73;;;15.00;43.10;;;;;;10458853;28;20244;-75
2022/10/01 01:26:53;;;;;;;10.80;9.80;;;15.00;43.00;;;;;;10459494;28;20236;-75
2022/10/01 01:32:06;;;;;;;10.27;9.47;;;14.90;42.80;;;;;;10459817;28;20756;-75
2022/10/01 01:37:17;;;;;;;10.67;9.77;;;14.90;42.40;;;;;;10462124;28;20728;-75
2022/10/01 01:42:25;;;;;;;10.67;9.70;;;14.70;42.30;;;;;;10461812;28;20224;-75
2022/10/01 01:47:33;;;;;;;11.53;10.53;;;14.50;42.60;;;;;;10459848;28;20233;-75
2022/10/01 01:52:37;;;;;;;9.20;8.40;;;14.40;42.60;;;;;;10462344;28;20577;-75
2022/10/01 01:57:43;;;;;;;8.57;7.87;;;14.40;42.70;;;;;;10460589;28;20826;-75
2022/10/01 02:02:52;;;;;;;8.73;8.00;;;14.30;42.70;;;;;;10463461;28;20224;-75
2022/10/01 02:08:13;;;;;;;10.53;9.53;;;14.20;42.70;;;;;;10458120;28;20228;-75
2022/10/01 02:13:27;;;;;;;9.23;8.43;;;14.20;42.30;;;;;;10464644;28;20236;-75
2022/10/01 02:18:36;;;;;;;9.67;8.87;;;14.10;42.30;;;;;;10458526;28;20282;-75
2022/10/01 02:23:45;;;;;;;7.95;7.25;;;14.10;42.40;;;;;;10461179;28;20239;-75
2022/10/01 02:28:51;;;;;;;9.13;8.43;;;14.00;42.30;;;;;;10467089;28;20258;-75
2022/10/01 02:33:58;;;;;;;10.07;9.27;;;13.90;42.40;;;;;;10468309;28;20649;-75
2022/10/01 02:39:02;;;;;;;9.37;8.60;;;13.90;42.30;;;;;;10469314;28;20225;-75
2022/10/01 02:44:08;;;;;;;9.80;9.03;;;13.80;42.20;;;;;;10469665;28;20227;-75
2022/10/01 02:49:13;;;;;;;8.13;7.50;;;13.80;42.20;;;;;;10471005;28;20278;-75
2022/10/01 02:54:24;;;;;;;8.57;7.87;;;13.70;42.00;;;;;;10469557;28;20224;-75
2022/10/01 02:59:27;;;;;;;8.60;7.87;;;13.70;41.90;;;;;;10471912;28;20228;-75
2022/10/01 03:04:31;;;;;;;7.47;6.87;;;13.60;41.90;;;;;;10468672;28;20799;-75
2022/10/01 03:09:36;;;;;;;7.70;7.10;;;13.50;41.70;;;;;;10472206;28;20286;-75
2022/10/01 03:14:39;;;;;;;9.03;8.23;;;13.50;41.80;;;;;;10470084;28;20232;-75
2022/10/01 03:19:46;;;;;;;8.20;7.53;;;13.40;41.90;;;;;;10460094;28;20232;-75
2022/10/01 03:24:49;;;;;;;9.20;8.40;;;13.30;42.10;;;;;;10470349;28;20229;-75
2022/10/01 03:29:52;;;;;;;10.40;9.50;;;13.30;42.20;;;;;;10465537;28;21150;-75
2022/10/01 03:34:57;;;;;;;8.43;7.73;;;13.30;42.10;;;;;;10467242;28;20224;-75
2022/10/01 03:40:00;;;;;;;9.40;8.50;;;13.20;42.20;;;;;;10467077;28;20770;-75
2022/10/01 03:45:03;;;;;;;7.23;6.63;;;13.20;42.00;;;;;;10465201;28;21002;-75
2022/10/01 03:50:09;;;;;;;9.77;8.87;;;13.10;41.90;;;;;;10463446;28;20636;-75
2022/10/01 03:55:12;;;;;;;11.60;10.27;;;13.10;42.00;;;;;;10466193;28;20227;-75
2022/10/01 04:00:17;;;;;;;18.83;10.23;;;13.00;41.80;;;;;;10467833;28;20638;-75
2022/10/01 04:05:21;;;;;;;15.83;10.27;;;13.00;41.80;;;;;;10468645;28;20243;-75
2022/10/01 04:10:24;;;;;;;10.60;9.70;;;12.90;41.60;;;;;;10460962;28;20728;-75
2022/10/01 04:15:27;;;;;;;14.10;10.67;;;12.80;42.00;;;;;;10467782;28;20275;-75
2022/10/01 04:20:32;;;;;;;10.30;9.40;;;12.70;41.80;;;;;;10471747;28;20302;-75
2022/10/01 04:25:35;;;;;;;12.80;10.00;;;12.70;42.30;;;;;;10460164;28;20243;-75
2022/10/01 04:30:40;;;;;;;17.43;10.27;;;12.70;43.10;;;;;;10461634;28;20251;-75
2022/10/01 04:35:44;;;;;;;9.00;8.20;;;12.60;42.20;;;;;;10464679;28;20228;-75
2022/10/01 04:40:47;;;;;;;9.70;8.90;;;12.50;42.10;;;;;;10462562;28;20287;-75
2022/10/01 04:45:51;;;;;;;11.67;10.67;;;12.40;42.00;;;;;;10463993;28;20233;-75
2022/10/01 04:50:55;;;;;;;8.67;7.87;;;12.40;42.00;;;;;;10464828;28;20224;-75
2022/10/01 04:55:58;;;;;;;8.53;7.83;;;12.30;42.00;;;;;;10469112;28;20229;-75
2022/10/01 05:01:01;;;;;;;10.20;9.37;;;12.30;42.00;;;;;;10466520;28;20232;-75
2022/10/01 05:06:06;;;;;;;10.13;9.33;;;12.30;42.00;;;;;;10462630;28;20605;-75
2022/10/01 05:11:09;;;;;;;9.20;8.50;;;12.30;42.00;;;;;;10463782;28;20283;-75
2022/10/01 05:16:12;;;;;;;8.27;7.67;;;12.30;42.00;;;;;;10464938;28;20229;-75
2022/10/01 05:21:17;;;;;;;7.00;6.50;;;12.30;42.00;;;;;;10459763;28;20786;-75
2022/10/01 05:26:20;;;;;;;8.13;7.43;;;12.30;42.00;;;;;;10464195;28;20730;-75
2022/10/01 05:31:23;;;;;;;8.67;7.97;;;12.20;41.90;;;;;;10466759;28;20241;-75
2022/10/01 05:36:28;;;;;;;8.80;8.00;;;12.30;42.30;;;;;;10464370;28;20220;-75
2022/10/01 05:41:31;;;;;;;13.97;12.50;;;12.30;42.50;;;;;;10462418;28;20233;-75
2022/10/01 05:46:35;;;;;;;14.83;13.43;;;12.30;42.70;;;;;;10463461;28;20300;-75
2022/10/01 05:51:39;;;;;;;13.60;12.37;;;12.30;43.00;;;;;;10464545;28;20255;-75
2022/10/01 05:56:43;;;;;;;13.80;12.60;;;12.20;43.60;;;;;;10463136;28;20224;-75
2022/10/01 06:01:46;;;;;;;14.13;12.83;;;12.20;43.70;;;;;;10459707;28;20338;-75
2022/10/01 06:06:52;;;;;;;14.13;12.83;;;12.10;43.90;;;;;;10468768;28;20225;-75
2022/10/01 06:11:55;;;;;;;13.40;12.30;;;12.10;45.20;;;;;;10465784;28;20613;-76
2022/10/01 06:16:58;;;;;;;14.00;12.70;;;12.10;44.40;;;;;;10465235;28;20232;-76
2022/10/01 06:22:03;;;;;;;12.43;11.33;;;12.10;44.60;;;;;;10460851;28;20258;-76
2022/10/01 06:27:06;;;;;;;12.83;11.63;;;12.10;45.20;;;;;;10461049;28;20240;-76
2022/10/01 06:32:12;;;;;;;11.23;10.23;;;12.10;45.10;;;;;;10460708;28;20239;-75
2022/10/01 06:37:17;;;;;;;12.13;11.03;;;12.10;45.30;;;;;;10465964;28;20263;-76
2022/10/01 06:42:21;;;;;;;12.07;10.87;;;12.10;45.90;;;;;;10459974;28;20798;-75
2022/10/01 06:47:24;;;;;;;11.83;10.73;;;12.10;45.80;;;;;;10462747;28;20233;-75
2022/10/01 06:57:54;;;;;;;11.17;10.17;;;12.20;46.50;;;;;;10459553;28;20235;-76
2022/10/01 07:02:58;;;;;;;10.97;9.97;;;12.40;47.20;;;;;;10457520;28;20267;-75
2022/10/01 07:08:03;;;;;;;11.30;10.27;;;12.40;46.30;;;;;;10455846;28;20229;-76
2022/10/01 07:13:07;;;;;;;11.77;10.67;;;12.50;46.80;;;;;;10466757;28;20228;-74
2022/10/01 07:18:11;;;;;;;10.90;10.00;;;12.60;46.80;;;;;;10469842;28;20631;-75
2022/10/01 07:23:16;;;;;;;11.57;10.57;;;12.70;46.60;;;;;;10473355;28;20228;-75
2022/10/01 07:28:24;;;;;;;10.37;9.47;;;12.80;47.00;;;;;;10465449;28;20277;-75
2022/10/01 07:33:28;;;;;;;10.13;9.33;;;12.90;47.00;;;;;;10468094;28;20662;-75
2022/10/01 07:38:33;;;;;;;9.30;8.53;;;13.00;46.80;;;;;;10467240;28;20231;-75
2022/10/01 07:43:38;;;;;;;9.33;8.50;;;13.10;47.10;;;;;;10467271;28;20228;-75
2022/10/01 07:48:42;;;;;;;10.30;9.30;;;13.20;46.80;;;;;;10467900;28;20239;-76
2022/10/01 07:53:47;;;;;;;8.90;8.23;;;13.40;46.90;;;;;;10466341;28;20283;-76
2022/10/01 07:58:50;;;;;;;8.87;8.17;;;13.50;47.30;;;;;;10470487;28;20228;-76
2022/10/01 08:03:54;;;;;;;9.83;9.03;;;13.60;47.80;;;;;;10471600;28;20232;-75
2022/10/01 08:08:58;;;;;;;9.57;8.67;;;13.70;47.20;;;;;;10472953;28;20286;-75
2022/10/01 08:14:03;;;;;;;9.87;9.07;;;13.90;47.30;;;;;;10463687;28;20224;-74
2022/10/01 08:19:07;;;;;;;10.07;9.10;;;14.00;47.10;;;;;;10469680;28;20610;-75
2022/10/01 08:24:11;;;;;;;9.53;8.73;;;14.10;47.10;;;;;;10466314;28;20720;-75
2022/10/01 08:29:15;;;;;;;9.13;8.37;;;14.20;47.00;;;;;;10468886;28;20876;-74
2022/10/01 08:34:19;;;;;;;8.50;7.63;;;14.30;46.50;;;;;;10470393;28;20237;-76
2022/10/01 08:39:23;;;;;;;8.97;8.07;;;14.40;46.30;;;;;;10451429;28;20918;-75
2022/10/01 08:44:30;;;;;;;7.67;7.07;;;14.40;46.10;;;;;;10477102;28;20709;-75
2022/10/01 08:49:41;;;;;;;7.80;7.20;;;14.50;46.30;;;;;;10463302;28;20229;-75
2022/10/01 08:54:49;;;;;;;8.50;7.80;;;14.50;46.20;;;;;;10451734;28;20225;-75
2022/10/01 08:59:56;;;;;;;8.63;7.83;;;14.60;46.20;;;;;;10454146;28;20723;-76
2022/10/01 09:05:02;;;;;;;7.40;6.77;;;14.60;46.10;;;;;;10467729;28;20665;-80
2022/10/01 09:10:24;;;;;;;7.83;7.13;;;14.70;46.20;;;;;;10467264;28;20262;-75
2022/10/01 09:15:34;;;;;;;8.37;7.57;;;14.80;46.30;;;;;;10468956;28;20718;-77
2022/10/01 09:20:42;;;;;;;9.90;9.03;;;14.90;47.20;;;;;;10483463;28;20232;-78
2022/10/01 09:25:50;;;;;;;7.90;7.20;;;15.00;46.30;;;;;;10488852;28;20239;-78
2022/10/01 09:30:57;;;;;;;5.73;5.17;;;15.10;45.90;;;;;;10474402;28;20271;-77
2022/10/01 09:36:11;;;;;;;4.60;4.20;;;15.20;45.90;;;;;;10469414;28;20245;-77
2022/10/01 09:41:17;;;;;;;3.90;3.60;;;15.20;45.50;;;;;;10460767;28;20240;-77
2022/10/01 09:46:26;;;;;;;4.00;3.70;;;15.30;45.50;;;;;;10467843;28;20286;-77
2022/10/01 09:51:36;;;;;;;3.53;3.30;;;15.30;44.60;;;;;;10468631;28;20242;-77
2022/10/01 09:56:48;;;;;;;3.80;3.30;;;15.30;45.30;;;;;;10465895;28;20581;-77
2022/10/01 10:01:54;;;;;;;2.90;2.70;;;15.30;45.00;;;;;;10469176;28;20224;-77
2022/10/01 10:07:03;;;;;;;3.20;3.00;;;15.30;45.30;;;;;;10460361;28;20228;-78
2022/10/01 10:12:25;;;;;;;3.10;2.90;;;15.20;45.50;;;;;;10467124;28;20595;-77
2022/10/01 10:17:28;;;;;;;2.97;2.77;;;15.20;45.70;;;;;;10467571;28;20704;-78
2022/10/01 10:22:32;;;;;;;2.80;2.60;;;15.20;45.40;;;;;;10467806;28;20224;-78
2022/10/01 10:27:36;;;;;;;3.80;3.47;;;15.10;45.50;;;;;;10464232;28;20232;-76
2022/10/01 10:32:40;;;;;;;3.60;3.30;;;15.10;45.60;;;;;;10472930;28;20224;-78
2022/10/01 10:37:48;;;;;;;3.40;3.10;;;15.00;45.40;;;;;;10471975;28;20749;-79
2022/10/01 10:42:53;;;;;;;2.90;2.70;;;14.90;46.00;;;;;;10478807;28;20236;-81
2022/10/01 10:47:58;;;;;;;2.93;2.73;;;14.80;45.90;;;;;;10477833;28;20298;-76
2022/10/01 10:53:12;;;;;;;3.20;2.90;;;14.80;46.10;;;;;;10473164;28;20228;-76
2022/10/01 10:58:18;;;;;;;3.20;2.90;;;14.70;46.30;;;;;;10464420;28;20998;-76
2022/10/01 11:03:24;;;;;;;2.87;2.67;;;14.60;46.30;;;;;;10478644;28;20232;-76
2022/10/01 11:08:28;;;;;;;2.43;2.23;;;14.50;46.60;;;;;;10461497;28;20293;-76
2022/10/01 11:13:52;;;;;;;2.40;2.30;;;14.50;46.30;;;;;;10470051;28;20235;-76
2022/10/01 11:19:15;;;;;;;2.50;2.30;;;14.50;46.90;;;;;;10478644;28;20228;-76
2022/10/01 11:24:39;;;;;;;3.00;1.90;;;14.50;46.90;;;;;;10473280;28;20227;-75
2022/10/01 11:29:54;;;;;;;2.13;2.00;;;14.50;46.80;;;;;;10471359;28;20735;-75
2022/10/01 11:35:21;;;;;;;2.50;2.30;;;14.50;47.00;;;;;;10469811;28;20231;-76
2022/10/01 11:40:28;;;;;;;3.30;2.20;;;14.40;46.80;;;;;;10470669;28;20240;-76
2022/10/01 11:45:40;;;;;;;2.27;2.17;;;14.40;46.70;;;;;;10470122;28;20641;-75
2022/10/01 11:50:47;;;;;;;2.23;2.13;;;14.40;47.00;;;;;;10462509;28;20236;-76
2022/10/01 12:01:29;;;;;;;3.70;2.10;;;14.30;47.10;;;;;;10463440;28;20236;-76
2022/10/01 12:06:37;;;;;;;1.67;1.53;;;14.20;47.30;;;;;;10466283;28;20289;-76
2022/10/01 12:11:51;;;;;;;2.10;1.83;;;14.20;47.00;;;;;;10463107;28;20287;-77
2022/10/01 12:16:59;;;;;;;2.23;2.13;;;14.10;47.40;;;;;;10471887;28;20259;-79
2022/10/01 12:22:09;;;;;;;2.40;2.20;;;14.10;47.70;;;;;;10476198;28;21441;-83
2022/10/01 12:27:33;;;;;;;2.40;1.70;;;14.00;47.90;;;;;;10470617;28;20283;-75
2022/10/01 12:32:50;;;;;;;1.73;1.63;;;14.00;48.50;;;;;;10476524;28;21140;-77
2022/10/01 12:38:08;;;;;;;2.67;2.30;;;13.90;48.50;;;;;;10478485;28;20259;-79
2022/10/01 12:43:27;;;;;;;1.90;1.70;;;13.80;48.90;;;;;;10484974;28;20316;-80
2022/10/01 12:48:37;;;;;;;1.70;1.60;;;13.80;48.80;;;;;;10482527;28;20243;-79
2022/10/01 12:53:50;;;;;;;2.07;1.50;;;13.80;48.80;;;;;;10485098;28;20788;-79
2022/10/01 12:59:08;;;;;;;1.60;1.50;;;13.90;48.70;;;;;;10480958;28;20235;-77
2022/10/01 13:04:37;;;;;;;1.70;1.60;;;14.00;49.30;;;;;;10485295;28;20228;-78
2022/10/01 13:09:50;;;;;;;1.60;1.50;;;14.10;48.90;;;;;;10471502;28;20811;-76
2022/10/01 13:14:55;;;;;;;1.90;1.80;;;14.10;48.60;;;;;;10494325;28;20232;-78
2022/10/01 13:20:06;;;;;;;1.63;1.53;;;14.20;48.40;;;;;;10491180;28;20221;-78
2022/10/01 13:25:24;;;;;;;1.40;1.30;;;14.20;48.80;;;;;;10479963;28;20334;-74
2022/10/01 13:30:41;;;;;;;1.90;1.80;;;14.20;48.80;;;;;;10472643;28;20243;-77
2022/10/01 13:35:54;;;;;;;1.90;1.80;;;14.20;48.60;;;;;;10465538;28;20224;-77
2022/10/01 13:41:00;;;;;;;1.90;1.80;;;14.30;48.80;;;;;;10470312;28;20225;-75
2022/10/01 13:46:08;;;;;;;1.80;1.70;;;14.40;48.10;;;;;;10471058;28;20287;-80
2022/10/01 13:51:15;;;;;;;2.17;1.93;;;14.40;48.40;;;;;;10478628;28;20310;-79
2022/10/01 13:56:30;;;;;;;1.90;1.80;;;14.50;48.30;;;;;;10477371;28;20244;-79
2022/10/01 14:01:41;;;;;;;2.13;2.03;;;14.50;48.40;;;;;;10473808;28;20238;-79
2022/10/01 14:06:51;;;;;;;2.77;2.50;;;14.60;48.60;;;;;;10468959;28;20235;-79
2022/10/01 14:17:22;;;;;;;2.43;2.20;;;14.70;48.40;;;;;;10473426;28;20277;-79
2022/10/01 14:22:53;;;;;;;1.70;1.60;;;14.80;48.40;;;;;;10480207;28;20227;-79
2022/10/01 14:28:18;;;;;;;1.70;1.60;;;14.90;48.40;;;;;;10478540;28;20595;-79
2022/10/01 14:33:59;;;;;;;1.70;1.60;;;15.00;48.10;;;;;;10474271;28;20232;-79
2022/10/01 14:39:13;;;;;;;1.70;1.60;;;15.00;48.20;;;;;;10470549;28;20220;-78
2022/10/01 14:44:24;;;;;;;1.80;1.70;;;15.10;48.10;;;;;;10480735;28;20236;-79
2022/10/01 14:49:29;;;;;;;1.50;1.40;;;15.20;48.20;;;;;;10482042;28;21922;-79
2022/10/01 14:54:42;;;;;;;1.60;1.50;;;15.30;47.80;;;;;;10482224;28;20786;-79
2022/10/01 14:59:48;;;;;;;1.67;1.57;;;15.30;47.90;;;;;;10484686;28;20235;-79
2022/10/01 15:04:53;;;;;;;1.43;1.33;;;15.40;47.90;;;;;;10485347;28;20225;-79
2022/10/01 15:10:07;;;;;;;1.50;1.40;;;15.50;48.00;;;;;;10474561;28;20324;-78
2022/10/01 15:15:19;;;;;;;1.57;1.30;;;15.60;48.00;;;;;;10483056;28;20232;-78
2022/10/01 15:20:22;;;;;;;1.63;1.40;;;15.70;47.80;;;;;;10482049;28;20233;-80
2022/10/01 15:25:29;;;;;;;1.97;1.40;;;15.80;47.30;;;;;;10478877;28;20653;-79
2022/10/01 15:30:35;;;;;;;1.30;1.20;;;15.90;46.90;;;;;;10482200;28;20228;-78
2022/10/01 15:35:39;;;;;;;1.67;1.50;;;15.80;46.90;;;;;;10480313;28;20232;-78
2022/10/01 15:40:44;;;;;;;1.70;1.60;;;15.80;46.70;;;;;;10478175;28;20323;-78
2022/10/01 15:46:15;;;;;;;1.70;1.30;;;15.80;46.60;;;;;;10482887;28;20282;-79
2022/10/01 15:51:24;;;;;;;1.40;1.30;;;15.70;46.60;;;;;;10474309;28;20236;-78
2022/10/01 15:56:30;;;;;;;3.90;1.40;;;15.70;46.70;;;;;;10481255;28;20807;-78
2022/10/01 16:01:40;;;;;;;1.23;1.17;;;15.70;46.60;;;;;;10472185;28;20312;-78
2022/10/01 16:06:46;;;;;;;1.20;1.10;;;15.70;46.80;;;;;;10471526;28;20225;-77
2022/10/01 16:11:55;;;;;;;2.27;1.67;;;15.60;46.80;;;;;;10470397;28;20291;-78
2022/10/01 16:17:32;;;;;;;1.60;1.50;;;15.60;46.60;;;;;;10459983;28;20225;-78
2022/10/01 16:22:38;;;;;;;1.60;1.50;;;15.70;46.60;;;;;;10463623;28;20693;-78
2022/10/01 16:27:47;;;;;;;1.60;1.50;;;15.60;46.60;;;;;;10465160;28;20229;-78
2022/10/01 16:32:50;;;;;;;1.87;1.33;;;15.60;46.70;;;;;;10469383;28;20235;-77
2022/10/01 16:37:56;;;;;;;1.40;1.30;;;15.60;46.70;;;;;;10470380;28;20247;-78
2022/10/01 16:43:02;;;;;;;1.50;1.40;;;15.60;46.70;;;;;;10468760;28;20232;-78
2022/10/01 16:48:12;;;;;;;1.67;1.47;;;15.60;46.70;;;;;;10465682;28;20240;-78
2022/10/01 16:53:17;;;;;;;2.57;1.40;;;15.60;46.70;;;;;;10472101;28;20748;-78
2022/10/01 16:58:22;;;;;;;1.20;1.20;;;15.50;46.70;;;;;;10470896;28;20652;-78
2022/10/01 17:03:26;;;;;;;1.43;1.30;;;15.50;46.80;;;;;;10474334;28;20228;-77
2022/10/01 17:08:29;;;;;;;1.20;1.10;;;15.60;46.80;;;;;;10461667;28;20228;-77
2022/10/01 17:13:34;;;;;;;1.30;1.20;;;15.60;46.90;;;;;;10458237;28;20297;-78
2022/10/01 17:18:37;;;;;;;1.20;1.10;;;15.60;47.00;;;;;;10470315;28;20228;-79
2022/10/01 17:23:41;;;;;;;1.50;1.40;;;15.60;47.00;;;;;;10467973;28;20235;-79
2022/10/01 17:28:45;;;;;;;1.10;1.10;;;15.60;47.00;;;;;;10470378;28;20225;-79
2022/10/01 17:33:50;;;;;;;1.20;1.20;;;15.60;47.00;;;;;;10474913;28;20240;-80
2022/10/01 17:38:53;;;;;;;1.23;0.90;;;15.60;47.00;;;;;;10472032;28;20243;-79
2022/10/01 17:43:57;;;;;;;1.30;1.20;;;15.60;47.00;;;;;;10478580;28;20228;-80
2022/10/01 17:49:01;;;;;;;1.20;1.10;;;15.60;47.30;;;;;;10476392;28;20232;-80
2022/10/01 17:54:04;;;;;;;0.90;0.90;;;15.60;47.20;;;;;;10478026;28;20579;-80
2022/10/01 17:59:08;;;;;;;1.03;0.90;;;15.60;47.20;;;;;;10477312;28;20228;-80
2022/10/01 18:04:12;;;;;;;2.23;1.00;;;15.70;47.40;;;;;;10477659;28;20282;-80
2022/10/01 18:09:15;;;;;;;0.90;0.90;;;15.70;47.30;;;;;;10482486;28;20224;-80
2022/10/01 18:14:19;;;;;;;0.90;0.90;;;15.70;47.30;;;;;;10478463;28;20339;-80
2022/10/01 18:19:23;;;;;;;1.10;1.00;;;15.70;47.50;;;;;;10472385;28;20240;-80
2022/10/01 18:24:46;;;;;;;1.43;1.03;;;15.70;47.20;;;;;;10476985;28;20224;-80
2022/10/01 18:29:50;;;;;;;1.23;0.90;;;15.80;47.30;;;;;;10472492;28;20259;-81
2022/10/01 18:34:56;;;;;;;0.80;0.80;;;15.70;47.30;;;;;;10478082;28;20224;-80
2022/10/01 18:40:05;;;;;;;2.73;1.10;;;15.80;47.30;;;;;;10477219;28;20243;-79
2022/10/01 18:45:16;;;;;;;1.27;0.80;;;15.80;47.40;;;;;;10479234;28;20697;-81
2022/10/01 18:50:31;;;;;;;1.00;1.00;;;15.80;47.50;;;;;;10470766;28;20786;-80
2022/10/01 18:55:55;;;;;;;1.43;0.90;;;15.80;47.40;;;;;;10470287;28;20221;-80
2022/10/01 19:01:08;;;;;;;1.30;1.00;;;15.80;47.50;;;;;;10473267;28;20228;-80
2022/10/01 19:06:39;;;;;;;0.80;0.80;;;15.90;47.50;;;;;;10480906;28;20311;-80
2022/10/01 19:11:50;;;;;;;1.07;1.00;;;15.90;47.40;;;;;;10484166;28;20236;-81
2022/10/01 19:17:06;;;;;;;0.83;0.83;;;15.80;47.60;;;;;;10486751;28;20231;-80
2022/10/01 19:22:18;;;;;;;1.10;1.00;;;15.80;47.80;;;;;;10481597;28;20227;-80
2022/10/01 19:27:37;;;;;;;0.90;0.90;;;15.80;48.10;;;;;;10482731;28;20230;-81
2022/10/01 19:32:47;;;;;;;0.87;0.87;;;15.80;48.00;;;;;;10481926;28;20228;-80
2022/10/01 19:37:53;;;;;;;1.03;1.03;;;15.70;48.00;;;;;;10481602;28;20642;-80
2022/10/01 19:43:03;;;;;;;1.47;1.10;;;15.70;47.90;;;;;;10477058;28;20278;-79
2022/10/01 19:48:16;;;;;;;0.90;0.90;;;15.70;48.50;;;;;;10479234;28;20228;-80
2022/10/01 19:53:25;;;;;;;0.80;0.80;;;15.60;48.60;;;;;;10475754;28;20599;-81
2022/10/01 19:58:31;;;;;;;0.90;0.90;;;15.60;48.40;;;;;;10480546;28;20248;-81
2022/10/01 20:03:38;;;;;;;1.10;1.00;;;15.60;48.30;;;;;;10469757;28;20221;-81
2022/10/01 20:08:46;;;;;;;0.90;0.90;;;15.60;48.50;;;;;;10478744;28;20250;-81
2022/10/01 20:14:06;;;;;;;1.30;1.03;;;15.60;48.60;;;;;;10474208;28;20236;-81
2022/10/01 20:19:20;;;;;;;1.10;1.10;;;15.50;49.00;;;;;;10480101;28;20688;-81
2022/10/01 20:24:42;;;;;;;1.43;1.00;;;15.50;48.80;;;;;;10474257;28;20229;-80
2022/10/01 20:29:51;;;;;;;0.70;0.70;;;15.60;49.00;;;;;;10468229;28;20225;-81
2022/10/01 20:35:09;;;;;;;1.10;1.10;;;15.60;49.00;;;;;;10475010;28;20231;-81
2022/10/01 20:40:23;;;;;;;0.80;0.80;;;15.60;49.10;;;;;;10472437;28;20228;-81
2022/10/01 20:45:31;;;;;;;1.10;0.87;;;15.60;48.80;;;;;;10479732;28;20236;-81
2022/10/01 20:50:42;;;;;;;1.10;1.00;;;15.70;48.60;;;;;;10475456;28;20232;-81
2022/10/01 20:55:50;;;;;;;0.90;0.80;;;15.70;48.80;;;;;;10476796;28;20240;-81
2022/10/01 21:00:59;;;;;;;0.90;0.90;;;15.70;48.40;;;;;;10478601;28;20228;-81
2022/10/01 21:06:09;;;;;;;0.90;0.90;;;15.80;48.60;;;;;;10474043;28;20792;-82
2022/10/01 21:11:17;;;;;;;1.17;0.97;;;15.80;48.40;;;;;;10471041;28;20250;-80
2022/10/01 21:16:54;;;;;;;1.00;0.90;;;15.80;48.30;;;;;;10475687;28;20225;-81
2022/10/01 21:22:11;;;;;;;0.90;0.90;;;15.80;48.30;;;;;;10477252;28;20337;-81
2022/10/01 21:27:37;;;;;;;1.37;0.90;;;15.80;48.40;;;;;;10474061;28;20302;-81
2022/10/01 21:33:01;;;;;;;2.03;1.10;;;15.80;48.50;;;;;;10475532;28;20237;-80
2022/10/01 21:38:13;;;;;;;1.83;1.00;;;15.80;48.40;;;;;;10470449;28;20225;-81
2022/10/01 21:43:31;;;;;;;1.53;1.10;;;15.90;48.40;;;;;;10470726;28;20225;-81
2022/10/01 21:48:42;;;;;;;1.47;1.10;;;15.90;48.20;;;;;;10473760;28;20228;-80
2022/10/01 21:54:02;;;;;;;1.17;0.87;;;15.90;48.30;;;;;;10478755;28;20274;-80
2022/10/01 21:59:14;;;;;;;2.60;0.83;;;15.90;48.10;;;;;;10477454;28;20225;-81
2022/10/01 22:04:23;;;;;;;1.10;0.80;;;15.90;47.90;;;;;;10479314;28;20228;-80
2022/10/01 22:09:37;;;;;;;3.20;0.90;;;15.90;47.90;;;;;;10475876;28;21175;-81
2022/10/01 22:14:44;;;;;;;1.60;1.00;;;15.90;47.90;;;;;;10480952;28;21105;-80
2022/10/01 22:19:51;;;;;;;1.00;0.90;;;15.90;47.80;;;;;;10475062;28;20225;-81
2022/10/01 22:24:59;;;;;;;1.27;0.90;;;15.90;47.90;;;;;;10476282;28;20225;-80
2022/10/01 22:30:08;;;;;;;2.00;1.00;;;15.90;47.90;;;;;;10470577;28;20239;-80
2022/10/01 22:35:19;;;;;;;1.70;0.90;;;15.90;47.90;;;;;;10476171;28;20229;-81
2022/10/01 22:40:27;;;;;;;1.87;1.03;;;15.90;47.90;;;;;;10486115;28;20236;-81
2022/10/01 22:45:44;;;;;;;1.47;1.13;;;15.90;47.90;;;;;;10486190;28;20712;-80
2022/10/01 22:51:03;;;;;;;1.20;1.10;;;16.00;47.90;;;;;;10484875;28;20834;-81
2022/10/01 22:56:13;;;;;;;2.80;1.20;;;15.90;47.90;;;;;;10477619;28;20220;-80
2022/10/01 23:01:29;;;;;;;2.47;0.93;;;15.90;47.90;;;;;;10481216;28;20229;-80
2022/10/01 23:06:40;;;;;;;0.93;0.87;;;15.90;47.90;;;;;;10490692;28;20239;-80
2022/10/01 23:11:51;;;;;;;1.17;0.90;;;15.90;47.90;;;;;;10484962;28;20232;-81
2022/10/01 23:17:00;;;;;;;1.37;0.97;;;15.90;48.10;;;;;;10479813;28;20247;-80
2022/10/01 23:22:11;;;;;;;1.60;0.90;;;15.90;48.00;;;;;;10485773;28;20635;-80
2022/10/01 23:27:29;;;;;;;1.67;0.90;;;15.90;48.10;;;;;;10481151;28;20234;-81
2022/10/01 23:32:51;;;;;;;2.13;0.97;;;15.90;48.10;;;;;;10476072;28;20306;-81
2022/10/01 23:38:06;;;;;;;1.70;0.80;;;16.00;48.20;;;;;;10477195;28;20601;-81
2022/10/01 23:43:20;;;;;;;2.17;0.80;;;16.00;48.10;;;;;;10482452;28;20228;-80
2022/10/01 23:48:30;;;;;;;1.60;0.90;;;16.10;48.10;;;;;;10481163;28;20236;-80
2022/10/01 23:53:40;;;;;;;1.20;0.80;;;16.10;47.90;;;;;;10482923;28;20232;-80
2022/10/01 23:58:48;;;;;;;2.73;0.70;;;16.10;47.90;;;;;;10473452;28;20241;-80
